Time;durP1;ratioP1;P1;durP2;ratioP2;P2;SDS_P1;SDS_P2;PMS_P1;PMS_P2;Temp;Humidity;BMP_temperature;BMP_pressure;BME280_temperature;BME280_humidity;BME280_pressure;Samples;Min_cycle;Max_cycle;Signal;HPM_P1;HPM_P2
2023/09/16 00:02:38;;;;;;;4.72;3.05;;;;;;;17.24;81.27;101727.81;6158711;28;20234;-66
2023/09/16 00:05:59;;;;;;;4.00;3.60;;;;;;;17.22;81.24;101732.56;6159656;28;20230;-66
2023/09/16 00:09:20;;;;;;;2.92;2.70;;;;;;;17.14;81.67;101727.91;6157820;28;20223;-66
2023/09/16 00:12:41;;;;;;;3.05;2.72;;;;;;;17.09;82.04;101723.94;6165016;28;20319;-67
2023/09/16 00:16:04;;;;;;;3.97;2.90;;;;;;;17.10;81.97;101720.22;6161929;28;20234;-66
2023/09/16 00:19:25;;;;;;;3.33;2.72;;;;;;;16.97;82.43;101731.50;6162047;28;20234;-66
2023/09/16 00:22:47;;;;;;;3.75;2.70;;;;;;;16.97;82.47;101734.22;6162394;28;21049;-66
2023/09/16 00:26:07;;;;;;;2.75;2.55;;;;;;;16.94;82.64;101726.34;6151838;28;20360;-66
2023/09/16 00:29:29;;;;;;;3.22;3.00;;;;;;;16.97;82.79;101717.03;6149141;28;20302;-67
2023/09/16 00:32:51;;;;;;;3.13;2.90;;;;;;;16.95;83.13;101714.47;6156970;28;21115;-66
2023/09/16 00:36:13;;;;;;;3.13;2.83;;;;;;;16.90;83.39;101708.63;6146106;28;20230;-67
2023/09/16 00:39:34;;;;;;;3.53;3.15;;;;;;;16.94;83.22;101710.00;6162503;28;20226;-66
2023/09/16 00:42:55;;;;;;;2.60;2.40;;;;;;;16.83;84.06;101698.53;6115406;28;20234;-66
2023/09/16 00:46:16;;;;;;;3.28;2.97;;;;;;;16.78;84.31;101697.13;6155003;28;20234;-66
2023/09/16 00:49:39;;;;;;;3.35;3.05;;;;;;;16.79;84.09;101701.53;6158645;28;20227;-66
2023/09/16 00:53:00;;;;;;;2.72;2.53;;;;;;;16.80;84.42;101702.41;6141623;28;20576;-65
2023/09/16 00:56:21;;;;;;;3.15;2.40;;;;;;;16.80;84.28;101696.97;6139051;28;20613;-66
2023/09/16 00:59:42;;;;;;;5.45;2.83;;;;;;;16.72;84.50;101696.88;6140831;28;20234;-67
2023/09/16 01:03:06;;;;;;;3.50;3.25;;;;;;;16.67;84.96;101697.34;6159141;28;20242;-67
2023/09/16 01:06:31;;;;;;;3.58;2.58;;;;;;;16.67;85.13;101696.47;6158928;28;20230;-68
2023/09/16 01:09:52;;;;;;;4.05;2.75;;;;;;;16.68;85.01;101695.47;6141326;28;20242;-67
2023/09/16 01:13:14;;;;;;;3.63;3.28;;;;;;;16.57;85.17;101692.97;6154288;28;20230;-66
2023/09/16 01:16:39;;;;;;;3.63;3.17;;;;;;;16.56;85.80;101688.56;6155713;28;20236;-67
2023/09/16 01:20:07;;;;;;;2.78;2.58;;;;;;;16.49;86.10;101687.44;6140849;28;20561;-67
2023/09/16 01:23:29;;;;;;;2.92;2.70;;;;;;;16.55;86.44;101686.84;6154856;28;20222;-66
2023/09/16 01:26:52;;;;;;;3.42;3.20;;;;;;;16.47;86.84;101682.16;6142702;28;20317;-67
2023/09/16 01:30:13;;;;;;;3.75;3.05;;;;;;;16.47;87.01;101682.16;6156676;28;20242;-68
2023/09/16 01:33:38;;;;;;;3.28;2.97;;;;;;;16.40;87.37;101682.91;6157833;28;20258;-66
2023/09/16 01:37:00;;;;;;;4.35;3.17;;;;;;;16.34;87.71;101678.06;6146574;28;20696;-67
2023/09/16 01:40:24;;;;;;;3.45;3.15;;;;;;;16.42;87.23;101681.75;6156212;28;20226;-66
2023/09/16 01:43:47;;;;;;;4.45;3.25;;;;;;;16.36;87.54;101681.50;6141274;28;21040;-67
2023/09/16 01:47:08;;;;;;;3.40;3.10;;;;;;;16.31;87.43;101681.94;6144007;28;20235;-67
2023/09/16 01:50:30;;;;;;;4.18;3.63;;;;;;;16.32;87.71;101688.25;6152319;28;20660;-67
2023/09/16 01:53:51;;;;;;;3.20;2.90;;;;;;;16.33;87.95;101681.81;6152934;28;20222;-67
2023/09/16 01:57:12;;;;;;;4.38;3.45;;;;;;;16.30;87.72;101674.81;6159231;28;20254;-67
2023/09/16 02:00:34;;;;;;;5.30;3.22;;;;;;;16.26;88.56;101667.97;6133926;28;20227;-67
2023/09/16 02:03:55;;;;;;;3.63;3.25;;;;;;;16.26;87.81;101672.53;6148578;28;20616;-67
2023/09/16 02:07:16;;;;;;;3.30;3.00;;;;;;;16.14;88.86;101668.34;6152754;28;20245;-66
2023/09/16 02:10:38;;;;;;;3.42;3.13;;;;;;;16.22;88.59;101661.13;6152455;28;20262;-67
2023/09/16 02:13:59;;;;;;;4.10;2.95;;;;;;;16.07;88.61;101653.63;6152480;28;20226;-66
2023/09/16 02:17:21;;;;;;;3.20;2.72;;;;;;;15.90;88.90;101655.28;6138788;28;20226;-66
2023/09/16 02:20:44;;;;;;;3.13;2.85;;;;;;;15.86;89.47;101654.75;6148042;28;20238;-67
2023/09/16 02:24:05;;;;;;;3.80;3.10;;;;;;;15.81;89.94;101659.78;6156453;28;20250;-67
2023/09/16 02:27:26;;;;;;;3.78;3.28;;;;;;;15.89;90.14;101659.03;6144019;28;20608;-66
2023/09/16 02:30:49;;;;;;;4.03;3.63;;;;;;;15.92;90.49;101653.28;6138800;28;20231;-67
2023/09/16 02:34:11;;;;;;;3.90;3.45;;;;;;;15.87;90.08;101659.16;6155876;28;20238;-67
2023/09/16 02:37:32;;;;;;;3.42;2.90;;;;;;;15.87;90.20;101651.00;6155048;28;20261;-67
2023/09/16 02:40:53;;;;;;;3.58;3.20;;;;;;;15.90;90.30;101658.00;6138559;28;21503;-67
2023/09/16 02:44:14;;;;;;;3.35;3.05;;;;;;;15.85;90.37;101654.91;6155347;28;20235;-67
2023/09/16 02:47:35;;;;;;;3.93;3.10;;;;;;;15.78;91.13;101649.22;6157534;28;20247;-66
2023/09/16 02:50:57;;;;;;;4.35;3.53;;;;;;;15.75;91.72;101644.06;6140458;28;20280;-67
2023/09/16 02:54:18;;;;;;;4.32;3.30;;;;;;;15.79;91.61;101640.03;6154622;28;21147;-67
2023/09/16 02:57:39;;;;;;;4.03;3.65;;;;;;;15.76;92.34;101632.19;6152715;28;20230;-67
2023/09/16 03:01:01;;;;;;;3.85;3.45;;;;;;;15.71;92.21;101631.78;6135074;28;20782;-67
2023/09/16 03:04:22;;;;;;;4.95;3.65;;;;;;;15.73;92.41;101631.63;6136266;28;20234;-66
2023/09/16 03:07:45;;;;;;;4.00;3.17;;;;;;;15.63;92.78;101620.81;6141877;28;20235;-67
2023/09/16 03:11:07;;;;;;;3.85;3.35;;;;;;;15.64;93.33;101625.25;6156817;28;20227;-66
2023/09/16 03:14:30;;;;;;;4.15;3.83;;;;;;;15.66;93.59;101623.25;6149535;28;20227;-66
2023/09/16 03:17:51;;;;;;;3.60;3.30;;;;;;;15.60;93.80;101617.53;6142032;28;20241;-67
2023/09/16 03:21:13;;;;;;;4.57;3.70;;;;;;;15.64;93.86;101619.81;6153074;28;20246;-66
2023/09/16 03:24:35;;;;;;;4.87;4.47;;;;;;;15.64;94.54;101619.81;6150817;28;20329;-67
2023/09/16 03:28:00;;;;;;;7.63;4.00;;;;;;;15.67;94.16;101621.34;6147524;28;20234;-67
2023/09/16 03:31:22;;;;;;;3.73;3.43;;;;;;;15.61;94.79;101620.09;6141745;28;20234;-67
2023/09/16 03:34:43;;;;;;;5.70;4.00;;;;;;;15.62;94.53;101621.84;6136342;28;20242;-67
2023/09/16 03:38:06;;;;;;;3.23;2.97;;;;;;;15.61;95.35;101622.81;6155128;28;20663;-67
2023/09/16 03:41:28;;;;;;;4.37;3.70;;;;;;;15.62;95.70;101627.28;6152251;28;20315;-67
2023/09/16 03:44:54;;;;;;;4.50;4.10;;;;;;;15.64;95.71;101625.25;6153788;28;20226;-67
2023/09/16 03:48:15;;;;;;;6.13;3.33;;;;;;;15.59;95.42;101630.28;6136792;28;20234;-68
2023/09/16 03:51:38;;;;;;;4.87;4.37;;;;;;;15.59;96.01;101629.41;6153266;28;20618;-67
2023/09/16 03:55:00;;;;;;;4.33;3.43;;;;;;;15.53;96.07;101622.72;6152047;28;20605;-67
2023/09/16 03:58:23;;;;;;;4.93;4.00;;;;;;;15.48;96.53;101616.88;6148722;28;20550;-67
2023/09/16 04:01:44;;;;;;;3.67;3.37;;;;;;;15.44;96.66;101612.72;6134203;28;20581;-67
2023/09/16 04:05:06;;;;;;;7.47;4.80;;;;;;;15.48;96.59;101608.72;6148582;28;20239;-67
2023/09/16 04:08:27;;;;;;;5.90;5.30;;;;;;;15.44;96.44;101614.59;6131943;28;20227;-67
2023/09/16 04:11:48;;;;;;;4.83;4.33;;;;;;;15.53;96.81;101611.84;6156273;28;20262;-67
2023/09/16 04:15:10;;;;;;;5.57;4.83;;;;;;;15.48;97.01;101613.31;6152526;28;20234;-67
2023/09/16 04:18:32;;;;;;;6.27;5.07;;;;;;;15.49;96.89;101617.72;6158057;28;21721;-66
2023/09/16 04:21:54;;;;;;;5.67;4.97;;;;;;;15.52;97.28;101614.72;6156653;28;20222;-67
2023/09/16 04:25:16;;;;;;;4.17;3.83;;;;;;;15.49;96.78;101607.72;6135202;28;20605;-67
2023/09/16 04:28:36;;;;;;;5.87;5.30;;;;;;;15.52;97.13;101606.56;6141374;28;20235;-67
2023/09/16 04:31:59;;;;;;;7.90;5.13;;;;;;;15.53;97.10;101608.28;6156182;28;20520;-67
2023/09/16 04:35:20;;;;;;;5.70;5.10;;;;;;;15.50;96.96;101608.59;6145230;28;20626;-67
2023/09/16 04:38:41;;;;;;;6.27;5.67;;;;;;;15.56;97.16;101600.66;6145186;28;20262;-66
2023/09/16 04:42:03;;;;;;;6.13;5.47;;;;;;;15.40;96.90;101603.13;6144052;28;20242;-67
2023/09/16 04:45:24;;;;;;;6.97;5.73;;;;;;;15.43;97.08;101596.59;6157843;28;20238;-67
2023/09/16 04:48:47;;;;;;;7.33;5.20;;;;;;;15.46;97.34;101609.91;6158152;28;20701;-67
2023/09/16 04:52:09;;;;;;;5.27;4.20;;;;;;;15.34;97.12;101602.88;6157543;28;20778;-67
2023/09/16 04:55:30;;;;;;;4.80;4.40;;;;;;;15.37;98.00;101608.03;6154562;28;20223;-68
2023/09/16 04:58:51;;;;;;;5.27;4.77;;;;;;;15.42;97.70;101600.25;6142481;28;20778;-67
2023/09/16 05:02:12;;;;;;;6.97;5.47;;;;;;;15.45;97.39;101606.31;6137202;28;20239;-67
2023/09/16 05:05:35;;;;;;;6.73;4.60;;;;;;;15.41;97.57;101604.00;6148110;28;20280;-67
2023/09/16 05:08:59;;;;;;;5.27;4.33;;;;;;;15.41;97.57;101604.00;6144800;28;20238;-67
2023/09/16 05:12:20;;;;;;;5.10;4.60;;;;;;;15.36;97.87;101609.88;6140103;28;20254;-67
2023/09/16 05:15:41;;;;;;;3.57;2.93;;;;;;;15.36;98.35;101606.28;6156843;28;20289;-67
2023/09/16 05:19:02;;;;;;;5.17;4.77;;;;;;;15.41;98.13;101604.88;6155160;28;20277;-67
2023/09/16 05:22:25;;;;;;;4.63;4.23;;;;;;;15.31;98.00;101606.75;6139983;28;20271;-67
2023/09/16 05:25:47;;;;;;;4.83;4.43;;;;;;;15.33;98.36;101609.34;6156391;28;20230;-67
2023/09/16 05:29:11;;;;;;;6.40;4.43;;;;;;;15.42;98.33;101606.56;6140355;28;20262;-67
2023/09/16 05:32:35;;;;;;;4.43;4.03;;;;;;;15.47;98.54;101607.00;6154512;28;20727;-67
2023/09/16 05:35:57;;;;;;;4.40;4.03;;;;;;;15.56;97.95;101610.69;6139031;28;20230;-67
2023/09/16 05:39:19;;;;;;;5.20;4.63;;;;;;;15.65;97.90;101613.34;6155009;28;20235;-67
2023/09/16 05:42:40;;;;;;;6.50;3.70;;;;;;;15.68;97.48;101609.47;6155276;28;20250;-67
2023/09/16 05:46:01;;;;;;;5.13;4.37;;;;;;;15.72;96.95;101617.19;6154177;28;20242;-67
2023/09/16 05:49:24;;;;;;;4.37;3.97;;;;;;;15.71;97.34;101610.03;6141793;28;20257;-67
2023/09/16 05:52:45;;;;;;;4.83;3.40;;;;;;;15.76;97.13;101613.16;6151865;28;20238;-67
2023/09/16 05:56:08;;;;;;;4.13;3.73;;;;;;;15.83;97.38;101611.53;6156543;28;20620;-67
2023/09/16 05:59:34;;;;;;;8.47;4.33;;;;;;;15.85;97.12;101612.22;6138875;28;20234;-67
2023/09/16 06:02:57;;;;;;;4.33;3.33;;;;;;;16.00;96.49;101605.28;6147267;28;20326;-67
2023/09/16 06:06:17;;;;;;;7.63;4.30;;;;;;;15.99;96.67;101605.44;6140161;28;20652;-66
2023/09/16 06:09:38;;;;;;;3.67;3.37;;;;;;;16.04;96.33;101599.53;6140192;28;20218;-66
2023/09/16 06:13:01;;;;;;;3.70;3.40;;;;;;;16.07;96.17;101613.69;6149599;28;20318;-67
2023/09/16 06:16:22;;;;;;;13.67;5.00;;;;;;;16.02;96.04;101617.88;6139721;28;20243;-66
2023/09/16 06:19:43;;;;;;;4.97;4.20;;;;;;;16.12;95.80;101607.78;6156201;28;20230;-67
2023/09/16 06:23:04;;;;;;;3.97;3.67;;;;;;;16.22;95.75;101603.13;6148853;28;20243;-66
2023/09/16 06:26:25;;;;;;;4.97;4.47;;;;;;;16.33;95.33;101606.50;6147695;28;20230;-65
2023/09/16 06:29:48;;;;;;;4.50;4.20;;;;;;;16.28;95.31;101606.09;6158258;28;20230;-67
2023/09/16 06:33:10;;;;;;;4.47;4.07;;;;;;;16.31;95.11;101604.94;6136933;28;20297;-64
2023/09/16 06:36:31;;;;;;;4.30;3.90;;;;;;;16.32;95.13;101607.47;6139315;28;23435;-65
2023/09/16 06:39:52;;;;;;;4.72;3.40;;;;;;;16.29;95.69;101615.94;6155450;28;20226;-65
2023/09/16 06:43:15;;;;;;;6.18;4.85;;;;;;;16.54;95.44;101604.31;6163514;28;20238;-65
2023/09/16 06:46:40;;;;;;;4.20;3.77;;;;;;;16.40;95.13;101606.69;6140166;28;20257;-66
2023/09/16 06:50:01;;;;;;;4.33;3.90;;;;;;;16.43;95.27;101598.22;6145868;28;21190;-67
2023/09/16 06:53:22;;;;;;;6.13;4.03;;;;;;;16.32;95.54;101604.75;6159352;28;20612;-68
2023/09/16 06:56:43;;;;;;;4.10;3.70;;;;;;;16.54;95.26;101595.31;6164065;28;20231;-68
2023/09/16 07:00:04;;;;;;;5.03;4.43;;;;;;;16.62;95.55;101589.94;6162279;28;20238;-67
2023/09/16 07:03:27;;;;;;;4.90;4.50;;;;;;;16.92;94.22;101603.06;6159817;28;20230;-67
2023/09/16 07:06:48;;;;;;;3.93;3.63;;;;;;;16.66;94.02;101600.34;6148721;28;20239;-68
2023/09/16 07:10:09;;;;;;;5.10;4.60;;;;;;;16.63;94.42;101605.22;6146178;28;20606;-67
2023/09/16 07:13:30;;;;;;;6.47;3.65;;;;;;;16.93;94.14;101599.34;6146695;28;20238;-68
2023/09/16 07:16:51;;;;;;;5.03;4.63;;;;;;;16.86;93.54;101603.72;6142684;28;20222;-67
2023/09/16 07:20:13;;;;;;;4.97;4.25;;;;;;;17.17;93.08;101599.50;6152132;28;20238;-67
2023/09/16 07:23:34;;;;;;;6.93;4.73;;;;;;;17.27;92.00;101591.22;6148730;28;20235;-68
2023/09/16 07:26:54;;;;;;;4.80;4.43;;;;;;;17.35;91.18;101597.59;6149804;28;20314;-68
2023/09/16 07:30:15;;;;;;;5.43;4.18;;;;;;;17.54;90.80;101594.63;6137262;28;20274;-67
2023/09/16 07:33:37;;;;;;;4.43;4.07;;;;;;;17.57;90.27;101601.63;6131149;28;20338;-68
2023/09/16 07:37:00;;;;;;;5.60;4.38;;;;;;;17.62;89.88;101591.09;6145841;28;20230;-67
2023/09/16 07:40:21;;;;;;;4.00;3.60;;;;;;;17.85;88.87;101588.63;6155584;28;20528;-68
2023/09/16 07:43:42;;;;;;;5.22;4.75;;;;;;;17.99;88.72;101598.88;6155191;28;20647;-68
2023/09/16 07:47:03;;;;;;;5.03;4.35;;;;;;;17.99;88.45;101599.75;6144839;28;20238;-67
2023/09/16 07:50:24;;;;;;;3.85;3.45;;;;;;;18.23;87.28;101607.16;6153569;28;20226;-68
2023/09/16 07:53:46;;;;;;;5.70;3.83;;;;;;;18.46;86.45;101600.00;6157600;28;20230;-67
2023/09/16 07:57:07;;;;;;;4.53;3.80;;;;;;;18.47;85.35;101599.00;6164279;28;20230;-67
2023/09/16 08:00:29;;;;;;;10.30;5.47;;;;;;;18.26;85.34;101604.06;6159068;28;20231;-68
2023/09/16 08:03:50;;;;;;;6.38;4.65;;;;;;;18.26;85.91;101602.19;6159865;28;20539;-67
2023/09/16 08:07:11;;;;;;;4.60;4.20;;;;;;;18.29;85.58;101604.56;6158242;28;20246;-68
2023/09/16 08:10:33;;;;;;;5.35;4.45;;;;;;;18.36;85.18;101602.03;6145766;28;20612;-68
2023/09/16 08:13:54;;;;;;;5.22;4.72;;;;;;;18.37;85.19;101614.66;6148578;28;20695;-67
2023/09/16 08:17:15;;;;;;;6.75;4.10;;;;;;;18.30;84.98;101611.75;6162619;28;20238;-67
2023/09/16 08:20:35;;;;;;;4.20;3.63;;;;;;;18.41;84.82;101609.72;6157149;28;20230;-67
2023/09/16 08:23:57;;;;;;;4.40;3.70;;;;;;;18.66;84.90;101603.28;6156659;28;20234;-66
2023/09/16 08:27:21;;;;;;;6.28;4.70;;;;;;;18.87;83.50;101604.47;6159476;28;20234;-66
2023/09/16 08:30:41;;;;;;;4.13;3.72;;;;;;;18.97;82.35;101591.47;6157920;28;20238;-66
2023/09/16 08:34:03;;;;;;;5.10;4.65;;;;;;;18.92;82.60;101598.50;6164470;28;20230;-66
2023/09/16 08:37:24;;;;;;;5.10;4.60;;;;;;;19.38;82.01;101589.53;6157871;28;20616;-66
2023/09/16 08:40:45;;;;;;;4.22;3.78;;;;;;;19.17;82.04;101588.38;6158068;28;20280;-66
2023/09/16 08:44:10;;;;;;;4.93;3.97;;;;;;;19.09;81.63;101592.81;6156929;28;20222;-66
2023/09/16 08:47:34;;;;;;;7.85;3.60;;;;;;;19.64;80.15;101592.88;6159710;28;20584;-65
2023/09/16 08:50:58;;;;;;;5.18;3.90;;;;;;;19.88;79.73;101592.72;6161381;28;20277;-67
2023/09/16 08:54:22;;;;;;;4.82;3.63;;;;;;;19.96;78.84;101588.25;6152649;28;20790;-66
2023/09/16 08:57:48;;;;;;;5.43;4.03;;;;;;;19.87;78.55;101580.09;6152007;28;20230;-66
2023/09/16 09:01:12;;;;;;;3.70;3.40;;;;;;;20.35;77.78;101581.72;6149272;28;20589;-66
2023/09/16 09:04:33;;;;;;;4.32;3.58;;;;;;;20.83;76.37;101587.81;6146364;28;20511;-71
2023/09/16 09:07:55;;;;;;;3.42;3.13;;;;;;;21.15;73.83;101582.06;6156373;28;20816;-71
2023/09/16 09:11:16;;;;;;;6.20;3.88;;;;;;;21.56;72.75;101582.44;6146899;28;20230;-71
2023/09/16 09:14:37;;;;;;;4.10;3.80;;;;;;;21.64;72.27;101583.19;6148017;28;20687;-71
2023/09/16 09:17:59;;;;;;;6.90;3.15;;;;;;;22.61;69.81;101588.16;6154882;28;20234;-69
2023/09/16 09:21:21;;;;;;;5.45;3.30;;;;;;;22.47;68.01;101582.69;6155329;28;20226;-72
2023/09/16 09:24:42;;;;;;;4.18;3.35;;;;;;;22.09;68.51;101584.84;6144885;28;20238;-71
2023/09/16 09:28:04;;;;;;;3.58;3.25;;;;;;;22.04;67.68;101573.56;6149965;28;20249;-70
2023/09/16 09:31:25;;;;;;;5.13;3.55;;;;;;;21.30;69.21;101572.78;6159257;28;20242;-74
2023/09/16 09:34:48;;;;;;;4.32;3.92;;;;;;;21.33;69.74;101574.31;6151650;28;22020;-72
2023/09/16 09:38:09;;;;;;;4.57;3.80;;;;;;;21.51;69.70;101565.69;6149319;28;20242;-72
2023/09/16 09:41:42;;;;;;;4.35;4.03;;;;;;;21.91;69.34;101565.16;6138791;28;20226;-72
2023/09/16 09:45:03;;;;;;;3.72;3.30;;;;;;;21.40;69.77;101558.78;6120099;28;20226;-71
2023/09/16 09:48:24;;;;;;;4.05;3.47;;;;;;;21.79;69.53;101556.56;6134593;28;20336;-72
2023/09/16 09:51:48;;;;;;;3.90;3.42;;;;;;;21.93;68.86;101555.72;6131451;28;20234;-71
2023/09/16 09:55:10;;;;;;;3.58;3.17;;;;;;;22.31;67.68;101550.84;6133176;28;20234;-72
2023/09/16 09:58:31;;;;;;;3.00;2.70;;;;;;;22.28;66.41;101556.72;6109299;28;20561;-72
2023/09/16 10:01:52;;;;;;;5.10;3.33;;;;;;;22.91;66.59;101561.34;6123285;28;20342;-72
2023/09/16 10:05:15;;;;;;;2.75;2.55;;;;;;;23.26;64.62;101560.31;6116463;28;20238;-70
2023/09/16 10:08:37;;;;;;;4.65;3.08;;;;;;;23.62;63.78;101560.13;6122937;28;20235;-70
2023/09/16 10:11:59;;;;;;;3.58;2.83;;;;;;;23.79;62.85;101553.22;6133766;28;20231;-70
2023/09/16 10:15:24;;;;;;;3.92;3.50;;;;;;;23.07;63.63;101552.81;6139232;28;22045;-71
2023/09/16 10:18:45;;;;;;;3.63;2.92;;;;;;;24.04;62.01;101551.66;6136504;28;21548;-71
2023/09/16 10:22:06;;;;;;;3.88;2.70;;;;;;;24.02;61.07;101545.47;6134987;28;20735;-71
2023/09/16 10:25:29;;;;;;;4.47;3.35;;;;;;;24.07;61.41;101550.38;6128203;28;20264;-71
2023/09/16 10:28:52;;;;;;;3.33;2.92;;;;;;;23.97;59.09;101555.41;6141676;28;20238;-73
2023/09/16 10:32:14;;;;;;;3.13;2.58;;;;;;;23.87;60.36;101535.66;6139173;28;20559;-73
2023/09/16 10:35:38;;;;;;;3.97;3.00;;;;;;;24.84;57.60;101543.31;6138736;28;20321;-72
2023/09/16 10:39:00;;;;;;;4.63;3.33;;;;;;;25.14;57.65;101546.44;6142950;28;20238;-73
2023/09/16 10:42:23;;;;;;;6.05;3.47;;;;;;;24.78;57.52;101543.31;6145468;28;20227;-72
2023/09/16 10:45:45;;;;;;;3.15;2.53;;;;;;;25.14;56.40;101533.50;6152641;28;20227;-73
2023/09/16 10:49:07;;;;;;;2.88;2.58;;;;;;;28.75;50.04;101531.06;6152319;28;20573;-72
2023/09/16 10:52:38;;;;;;;2.95;2.65;;;;;;;31.87;43.35;101521.19;6136482;28;20230;-72
2023/09/16 10:56:05;;;;;;;6.53;3.17;;;;;;;32.65;40.87;101531.81;6134371;28;20234;-72
2023/09/16 10:59:30;;;;;;;3.85;2.67;;;;;;;33.67;38.68;101520.25;6130085;28;20223;-72
2023/09/16 11:02:57;;;;;;;5.40;2.75;;;;;;;32.77;38.82;101512.91;6135279;28;20238;-72
2023/09/16 11:06:18;;;;;;;4.35;2.72;;;;;;;33.80;38.44;101514.13;6150529;28;20238;-72
2023/09/16 11:09:40;;;;;;;3.63;2.85;;;;;;;35.03;36.29;101512.09;6150247;28;20238;-72
2023/09/16 11:13:02;;;;;;;4.70;3.08;;;;;;;34.26;38.08;101510.38;6151529;28;20230;-73
2023/09/16 11:16:24;;;;;;;5.28;2.88;;;;;;;33.53;37.80;101514.31;6154287;28;20230;-72
2023/09/16 11:19:45;;;;;;;3.25;2.95;;;;;;;32.87;38.23;101510.22;6153180;28;20676;-72
2023/09/16 11:23:07;;;;;;;2.03;1.83;;;;;;;34.95;36.75;101510.69;6152207;28;20230;-72
2023/09/16 11:26:28;;;;;;;3.70;3.40;;;;;;;36.41;34.79;101512.97;6156054;28;20247;-72
2023/09/16 11:29:51;;;;;;;5.00;3.13;;;;;;;36.13;34.23;101504.44;6150981;28;21635;-72
2023/09/16 11:33:32;;;;;;;2.03;1.92;;;;;;;33.65;36.90;101500.13;6145333;28;20238;-71
2023/09/16 11:36:55;;;;;;;2.63;2.35;;;;;;;33.61;37.19;101498.94;6148094;28;20238;-71
2023/09/16 11:40:15;;;;;;;3.45;2.90;;;;;;;35.60;35.20;101497.66;6151963;28;20986;-70
2023/09/16 11:43:38;;;;;;;5.18;2.05;;;;;;;32.63;38.21;101488.50;6133653;28;20231;-70
2023/09/16 11:46:59;;;;;;;2.42;2.22;;;;;;;35.15;35.25;101491.03;6154993;28;20230;-70
2023/09/16 11:50:23;;;;;;;5.05;2.45;;;;;;;36.47;33.28;101492.13;6157934;28;20561;-71
2023/09/16 11:53:44;;;;;;;2.03;1.83;;;;;;;36.26;32.35;101493.38;6153714;28;20233;-70
2023/09/16 11:57:05;;;;;;;1.90;1.70;;;;;;;38.05;31.04;101481.69;6154349;28;20534;-70
2023/09/16 12:00:26;;;;;;;2.40;2.20;;;;;;;38.47;30.65;101475.94;6159664;28;20336;-70
2023/09/16 12:03:48;;;;;;;2.47;2.05;;;;;;;37.39;30.48;101479.72;6155838;28;20250;-70
2023/09/16 12:07:11;;;;;;;7.45;2.58;;;;;;;38.16;29.89;101467.13;6143057;28;20239;-71
2023/09/16 12:10:31;;;;;;;2.10;1.90;;;;;;;33.20;34.55;101464.34;6145130;28;20222;-70
2023/09/16 12:13:54;;;;;;;1.83;1.60;;;;;;;34.46;32.50;101461.94;6150606;28;21018;-67
2023/09/16 12:17:15;;;;;;;5.82;5.40;;;;;;;36.39;32.42;101452.53;6142686;28;20234;-70
2023/09/16 12:20:37;;;;;;;2.40;1.65;;;;;;;35.44;29.86;101457.59;6134715;28;20230;-69
2023/09/16 12:23:59;;;;;;;2.30;2.10;;;;;;;35.59;31.30;101451.91;6138293;28;20567;-69
2023/09/16 12:27:21;;;;;;;2.40;1.85;;;;;;;34.41;32.50;101451.56;6147824;28;20916;-70
2023/09/16 12:30:43;;;;;;;2.70;1.55;;;;;;;33.38;32.96;101447.06;6150098;28;20526;-70
2023/09/16 12:34:04;;;;;;;4.15;2.20;;;;;;;36.34;31.29;101447.78;6141992;28;20302;-70
2023/09/16 12:37:26;;;;;;;2.30;2.10;;;;;;;36.60;30.93;101446.50;6155487;28;20246;-71
2023/09/16 12:40:49;;;;;;;2.78;2.05;;;;;;;34.28;32.67;101440.91;6163173;28;20256;-69
2023/09/16 12:44:10;;;;;;;3.63;3.33;;;;;;;36.72;30.87;101430.06;6155190;28;20317;-69
2023/09/16 12:47:31;;;;;;;3.72;2.20;;;;;;;33.09;34.60;101428.22;6159853;28;20234;-69
2023/09/16 12:50:54;;;;;;;2.67;2.17;;;;;;;36.25;32.46;101423.44;6161970;28;20230;-70
2023/09/16 12:54:15;;;;;;;2.53;2.30;;;;;;;35.41;32.32;101413.25;6157582;28;20230;-70
2023/09/16 12:57:39;;;;;;;2.35;2.15;;;;;;;35.41;32.42;101415.22;6162658;28;20238;-69
2023/09/16 13:01:00;;;;;;;3.20;2.35;;;;;;;36.80;31.21;101418.16;6157103;28;20230;-69
2023/09/16 13:04:21;;;;;;;4.13;1.88;;;;;;;36.93;30.25;101405.41;6163953;28;20226;-70
2023/09/16 13:07:44;;;;;;;2.38;1.70;;;;;;;36.74;30.01;101410.06;6156339;28;20246;-68
2023/09/16 13:11:04;;;;;;;2.03;1.92;;;;;;;34.64;32.45;101401.72;6159727;28;20230;-70
2023/09/16 13:14:27;;;;;;;2.30;2.05;;;;;;;36.05;31.56;101400.00;6151165;28;20230;-68
2023/09/16 13:17:55;;;;;;;2.47;2.28;;;;;;;34.59;31.41;101403.41;6160568;28;20254;-68
2023/09/16 13:21:16;;;;;;;3.33;1.77;;;;;;;36.28;31.27;101398.41;6161924;28;20233;-69
2023/09/16 13:24:43;;;;;;;2.13;1.92;;;;;;;36.08;30.68;101398.59;6153165;28;20266;-69
2023/09/16 13:28:08;;;;;;;2.13;1.92;;;;;;;34.55;32.32;101391.06;6154356;28;20227;-69
2023/09/16 13:31:31;;;;;;;2.47;2.28;;;;;;;35.26;31.39;101397.34;6147942;28;20258;-68
2023/09/16 13:34:53;;;;;;;2.17;1.80;;;;;;;34.20;32.17;101396.69;6133289;28;20226;-69
2023/09/16 13:38:15;;;;;;;2.22;2.03;;;;;;;34.31;32.85;101384.38;6153902;28;20904;-69
2023/09/16 13:41:36;;;;;;;2.35;2.15;;;;;;;35.32;31.17;101384.97;6155668;28;20230;-68
2023/09/16 13:44:57;;;;;;;1.88;1.77;;;;;;;33.09;32.77;101386.28;6151832;28;20226;-68
2023/09/16 13:48:21;;;;;;;4.80;3.78;;;;;;;35.58;31.13;101379.25;6153399;28;20238;-70
2023/09/16 13:51:42;;;;;;;2.00;1.90;;;;;;;35.17;31.25;101381.41;6136635;28;20231;-70
2023/09/16 13:55:04;;;;;;;2.95;2.20;;;;;;;35.93;30.23;101368.63;6142914;28;20266;-70
2023/09/16 13:58:26;;;;;;;1.95;1.85;;;;;;;35.50;31.99;101363.88;6133396;28;20556;-70
2023/09/16 14:01:46;;;;;;;2.97;1.58;;;;;;;33.29;33.17;101350.03;6123439;28;20235;-68
2023/09/16 14:05:09;;;;;;;2.17;1.98;;;;;;;35.71;30.75;101357.00;6124417;28;20238;-67
2023/09/16 14:08:29;;;;;;;1.67;1.58;;;;;;;34.53;31.72;101353.25;6150863;28;20249;-68
2023/09/16 14:11:51;;;;;;;3.13;1.88;;;;;;;35.19;31.79;101345.50;6153411;28;20239;-69
2023/09/16 14:15:12;;;;;;;2.60;2.17;;;;;;;34.82;31.82;101340.28;6156559;28;20768;-66
2023/09/16 14:18:33;;;;;;;1.90;1.80;;;;;;;34.77;32.37;101342.28;6159857;28;20230;-67
2023/09/16 14:21:56;;;;;;;1.95;1.65;;;;;;;35.45;32.02;101337.75;6152128;28;20231;-66
2023/09/16 14:25:17;;;;;;;2.78;1.95;;;;;;;35.72;31.89;101336.22;6143349;28;20234;-68
2023/09/16 14:28:38;;;;;;;4.45;2.17;;;;;;;32.82;34.42;101336.94;6152552;28;20552;-67
2023/09/16 14:31:59;;;;;;;2.45;2.25;;;;;;;33.87;34.72;101330.00;6127971;28;20512;-67
2023/09/16 14:35:19;;;;;;;2.45;2.25;;;;;;;31.85;36.00;101336.47;6150780;28;20238;-67
2023/09/16 14:38:42;;;;;;;1.80;1.67;;;;;;;31.73;35.30;101343.34;6148515;28;21030;-68
2023/09/16 14:42:03;;;;;;;1.70;1.60;;;;;;;31.39;36.03;101339.88;6153682;28;20250;-68
2023/09/16 14:45:23;;;;;;;1.73;1.52;;;;;;;31.27;37.33;101336.41;6149246;28;20242;-68
2023/09/16 14:48:44;;;;;;;2.38;1.70;;;;;;;31.41;37.03;101338.56;6145467;28;20226;-68
2023/09/16 14:52:06;;;;;;;1.98;1.83;;;;;;;31.68;37.66;101343.28;6138445;28;20226;-69
2023/09/16 14:55:28;;;;;;;2.78;2.35;;;;;;;31.39;37.27;101342.69;6152007;28;20246;-69
2023/09/16 14:58:49;;;;;;;3.67;3.13;;;;;;;30.38;37.90;101341.31;6153484;28;20240;-69
2023/09/16 15:02:09;;;;;;;3.30;2.92;;;;;;;30.29;38.55;101336.41;6154270;28;20325;-68
2023/09/16 15:05:31;;;;;;;4.07;2.58;;;;;;;30.34;39.25;101339.28;6156997;28;20270;-69
2023/09/16 15:08:51;;;;;;;3.38;3.10;;;;;;;28.67;40.99;101342.69;6149059;28;20230;-69
2023/09/16 15:12:14;;;;;;;2.25;2.05;;;;;;;29.05;40.41;101338.25;6153423;28;20226;-69
2023/09/16 15:15:35;;;;;;;1.60;1.50;;;;;;;28.64;40.98;101335.72;6153575;28;20226;-69
2023/09/16 15:18:56;;;;;;;3.38;2.17;;;;;;;28.58;41.49;101346.94;6158597;28;20234;-69
2023/09/16 15:22:17;;;;;;;6.40;5.90;;;;;;;29.12;41.56;101346.47;6158694;28;20305;-69
2023/09/16 15:25:38;;;;;;;1.90;1.80;;;;;;;29.04;40.56;101335.72;6153787;28;20230;-69
2023/09/16 15:29:00;;;;;;;2.10;1.83;;;;;;;28.69;41.13;101335.81;6154760;28;20230;-69
2023/09/16 15:32:21;;;;;;;1.77;1.67;;;;;;;28.75;41.51;101332.03;6153241;28;20242;-69
2023/09/16 15:35:42;;;;;;;2.53;2.30;;;;;;;28.96;41.52;101344.44;6151733;28;20234;-69
2023/09/16 15:39:03;;;;;;;2.40;2.20;;;;;;;28.48;42.06;101341.94;6156042;28;20302;-69